sensor_id;sensor_type;location;lat;lon;timestamp;P1;durP1;ratioP1;P2;durP2;ratioP2
18532;SDS011;9396;51.510;11.934;2023-02-20T00:01:22;4.77;;;2.70;;
18532;SDS011;9396;51.510;11.934;2023-02-20T00:03:50;5.00;;;2.90;;
18532;SDS011;9396;51.510;11.934;2023-02-20T00:06:16;5.07;;;2.50;;
18532;SDS011;9396;51.510;11.934;2023-02-20T00:08:44;2.93;;;2.63;;
18532;SDS011;9396;51.510;11.934;2023-02-20T00:11:11;5.47;;;3.17;;
18532;SDS011;9396;51.510;11.934;2023-02-20T00:13:38;3.87;;;3.00;;
18532;SDS011;9396;51.510;11.934;2023-02-20T00:16:09;4.97;;;2.90;;
18532;SDS011;9396;51.510;11.934;2023-02-20T00:18:36;4.13;;;2.90;;
18532;SDS011;9396;51.510;11.934;2023-02-20T00:21:03;4.17;;;2.90;;
18532;SDS011;9396;51.510;11.934;2023-02-20T00:23:31;3.83;;;3.13;;
18532;SDS011;9396;51.510;11.934;2023-02-20T00:25:59;5.83;;;3.30;;
18532;SDS011;9396;51.510;11.934;2023-02-20T00:28:25;4.33;;;3.23;;
18532;SDS011;9396;51.510;11.934;2023-02-20T00:30:53;4.93;;;3.00;;
18532;SDS011;9396;51.510;11.934;2023-02-20T00:33:20;6.43;;;3.20;;
18532;SDS011;9396;51.510;11.934;2023-02-20T00:35:47;5.13;;;3.07;;
18532;SDS011;9396;51.510;11.934;2023-02-20T00:38:13;5.97;;;2.97;;
18532;SDS011;9396;51.510;11.934;2023-02-20T00:40:40;3.73;;;2.73;;
18532;SDS011;9396;51.510;11.934;2023-02-20T00:43:08;5.60;;;3.00;;
18532;SDS011;9396;51.510;11.934;2023-02-20T00:45:35;5.87;;;2.97;;
18532;SDS011;9396;51.510;11.934;2023-02-20T00:48:01;5.90;;;3.17;;
18532;SDS011;9396;51.510;11.934;2023-02-20T00:50:28;3.90;;;2.73;;
18532;SDS011;9396;51.510;11.934;2023-02-20T00:52:55;5.30;;;3.03;;
18532;SDS011;9396;51.510;11.934;2023-02-20T00:55:22;4.20;;;3.00;;
18532;SDS011;9396;51.510;11.934;2023-02-20T00:57:48;3.63;;;2.80;;
18532;SDS011;9396;51.510;11.934;2023-02-20T01:00:18;5.80;;;3.27;;
18532;SDS011;9396;51.510;11.934;2023-02-20T01:02:46;5.60;;;3.27;;
18532;SDS011;9396;51.510;11.934;2023-02-20T01:05:13;3.50;;;2.83;;
18532;SDS011;9396;51.510;11.934;2023-02-20T01:07:40;4.40;;;3.20;;
18532;SDS011;9396;51.510;11.934;2023-02-20T01:10:07;5.93;;;3.10;;
18532;SDS011;9396;51.510;11.934;2023-02-20T01:12:34;5.40;;;3.60;;
18532;SDS011;9396;51.510;11.934;2023-02-20T01:15:01;4.40;;;3.60;;
18532;SDS011;9396;51.510;11.934;2023-02-20T01:17:29;5.07;;;3.80;;
18532;SDS011;9396;51.510;11.934;2023-02-20T01:19:56;5.80;;;3.93;;
18532;SDS011;9396;51.510;11.934;2023-02-20T01:22:22;5.17;;;4.03;;
18532;SDS011;9396;51.510;11.934;2023-02-20T01:24:49;6.77;;;4.07;;
18532;SDS011;9396;51.510;11.934;2023-02-20T01:27:15;4.73;;;3.97;;
18532;SDS011;9396;51.510;11.934;2023-02-20T01:29:42;4.97;;;4.03;;
18532;SDS011;9396;51.510;11.934;2023-02-20T01:32:09;6.20;;;4.23;;
18532;SDS011;9396;51.510;11.934;2023-02-20T01:34:38;8.87;;;4.30;;
18532;SDS011;9396;51.510;11.934;2023-02-20T01:37:05;7.27;;;4.17;;
18532;SDS011;9396;51.510;11.934;2023-02-20T01:39:32;5.50;;;4.10;;
18532;SDS011;9396;51.510;11.934;2023-02-20T01:41:59;6.30;;;4.17;;
18532;SDS011;9396;51.510;11.934;2023-02-20T01:44:29;6.93;;;4.67;;
18532;SDS011;9396;51.510;11.934;2023-02-20T01:46:58;5.93;;;4.37;;
18532;SDS011;9396;51.510;11.934;2023-02-20T01:49:29;5.13;;;4.10;;
18532;SDS011;9396;51.510;11.934;2023-02-20T01:52:07;6.03;;;4.67;;
18532;SDS011;9396;51.510;11.934;2023-02-20T01:54:39;6.43;;;4.23;;
18532;SDS011;9396;51.510;11.934;2023-02-20T01:57:10;4.30;;;3.67;;
18532;SDS011;9396;51.510;11.934;2023-02-20T01:59:42;5.67;;;4.40;;
18532;SDS011;9396;51.510;11.934;2023-02-20T02:02:10;4.90;;;4.23;;
18532;SDS011;9396;51.510;11.934;2023-02-20T02:04:37;8.53;;;4.17;;
18532;SDS011;9396;51.510;11.934;2023-02-20T02:07:08;5.03;;;4.03;;
18532;SDS011;9396;51.510;11.934;2023-02-20T02:09:37;6.43;;;3.93;;
18532;SDS011;9396;51.510;11.934;2023-02-20T02:12:07;5.23;;;3.87;;
18532;SDS011;9396;51.510;11.934;2023-02-20T02:14:34;6.20;;;4.40;;
18532;SDS011;9396;51.510;11.934;2023-02-20T02:17:08;4.83;;;3.60;;
18532;SDS011;9396;51.510;11.934;2023-02-20T02:23:05;5.53;;;3.70;;
18532;SDS011;9396;51.510;11.934;2023-02-20T02:25:54;6.00;;;4.30;;
18532;SDS011;9396;51.510;11.934;2023-02-20T02:28:39;5.50;;;3.83;;
18532;SDS011;9396;51.510;11.934;2023-02-20T02:37:42;6.27;;;3.70;;
18532;SDS011;9396;51.510;11.934;2023-02-20T02:40:17;5.60;;;4.17;;
18532;SDS011;9396;51.510;11.934;2023-02-20T02:42:51;6.00;;;4.37;;
18532;SDS011;9396;51.510;11.934;2023-02-20T02:45:26;5.37;;;4.13;;
18532;SDS011;9396;51.510;11.934;2023-02-20T02:47:59;5.83;;;4.03;;
18532;SDS011;9396;51.510;11.934;2023-02-20T02:50:34;7.43;;;4.70;;
18532;SDS011;9396;51.510;11.934;2023-02-20T02:53:05;6.03;;;4.77;;
18532;SDS011;9396;51.510;11.934;2023-02-20T02:55:34;5.80;;;4.53;;
18532;SDS011;9396;51.510;11.934;2023-02-20T02:58:02;6.07;;;4.80;;
18532;SDS011;9396;51.510;11.934;2023-02-20T03:00:31;6.30;;;5.50;;
18532;SDS011;9396;51.510;11.934;2023-02-20T03:03:03;7.53;;;5.03;;
18532;SDS011;9396;51.510;11.934;2023-02-20T03:05:40;7.53;;;5.57;;
18532;SDS011;9396;51.510;11.934;2023-02-20T03:08:17;8.53;;;6.07;;
18532;SDS011;9396;51.510;11.934;2023-02-20T03:10:55;7.80;;;5.87;;
18532;SDS011;9396;51.510;11.934;2023-02-20T03:13:25;7.83;;;6.23;;
18532;SDS011;9396;51.510;11.934;2023-02-20T03:16:13;9.53;;;6.43;;
18532;SDS011;9396;51.510;11.934;2023-02-20T03:18:42;8.47;;;6.30;;
18532;SDS011;9396;51.510;11.934;2023-02-20T03:21:12;7.27;;;6.00;;
18532;SDS011;9396;51.510;11.934;2023-02-20T03:23:45;8.53;;;6.23;;
18532;SDS011;9396;51.510;11.934;2023-02-20T03:26:18;11.37;;;7.07;;
18532;SDS011;9396;51.510;11.934;2023-02-20T03:28:50;8.23;;;6.43;;
18532;SDS011;9396;51.510;11.934;2023-02-20T03:31:23;9.83;;;6.87;;
18532;SDS011;9396;51.510;11.934;2023-02-20T03:33:55;12.33;;;7.67;;
18532;SDS011;9396;51.510;11.934;2023-02-20T03:36:44;9.43;;;7.40;;
18532;SDS011;9396;51.510;11.934;2023-02-20T03:39:33;11.00;;;7.57;;
18532;SDS011;9396;51.510;11.934;2023-02-20T03:42:23;10.80;;;7.33;;
18532;SDS011;9396;51.510;11.934;2023-02-20T03:45:08;10.77;;;7.67;;
18532;SDS011;9396;51.510;11.934;2023-02-20T03:47:38;11.07;;;7.70;;
18532;SDS011;9396;51.510;11.934;2023-02-20T03:50:09;11.10;;;8.03;;
18532;SDS011;9396;51.510;11.934;2023-02-20T03:52:38;15.30;;;8.13;;
18532;SDS011;9396;51.510;11.934;2023-02-20T03:55:06;11.87;;;8.07;;
18532;SDS011;9396;51.510;11.934;2023-02-20T03:57:35;11.43;;;8.37;;
18532;SDS011;9396;51.510;11.934;2023-02-20T04:00:07;11.97;;;8.87;;
18532;SDS011;9396;51.510;11.934;2023-02-20T04:02:38;10.63;;;7.70;;
18532;SDS011;9396;51.510;11.934;2023-02-20T04:05:08;12.67;;;8.53;;
18532;SDS011;9396;51.510;11.934;2023-02-20T04:07:41;12.03;;;8.20;;
18532;SDS011;9396;51.510;11.934;2023-02-20T04:10:15;12.27;;;8.53;;
18532;SDS011;9396;51.510;11.934;2023-02-20T04:12:49;12.93;;;8.63;;
18532;SDS011;9396;51.510;11.934;2023-02-20T04:15:18;12.17;;;9.10;;
18532;SDS011;9396;51.510;11.934;2023-02-20T04:17:47;11.43;;;9.00;;
18532;SDS011;9396;51.510;11.934;2023-02-20T04:20:17;12.57;;;8.70;;
18532;SDS011;9396;51.510;11.934;2023-02-20T04:22:46;13.03;;;9.70;;
18532;SDS011;9396;51.510;11.934;2023-02-20T04:25:17;13.20;;;9.03;;
18532;SDS011;9396;51.510;11.934;2023-02-20T04:27:51;12.17;;;9.20;;
18532;SDS011;9396;51.510;11.934;2023-02-20T04:30:18;11.40;;;8.50;;
18532;SDS011;9396;51.510;11.934;2023-02-20T04:32:44;15.27;;;9.50;;
18532;SDS011;9396;51.510;11.934;2023-02-20T04:35:14;12.90;;;8.50;;
18532;SDS011;9396;51.510;11.934;2023-02-20T04:37:41;13.27;;;9.33;;
18532;SDS011;9396;51.510;11.934;2023-02-20T04:40:08;11.60;;;8.70;;
18532;SDS011;9396;51.510;11.934;2023-02-20T04:42:37;11.40;;;8.40;;
18532;SDS011;9396;51.510;11.934;2023-02-20T04:45:04;12.53;;;8.60;;
18532;SDS011;9396;51.510;11.934;2023-02-20T04:47:30;11.60;;;8.20;;
18532;SDS011;9396;51.510;11.934;2023-02-20T04:49:57;10.13;;;7.80;;
18532;SDS011;9396;51.510;11.934;2023-02-20T04:52:24;12.60;;;7.83;;
18532;SDS011;9396;51.510;11.934;2023-02-20T04:54:50;11.90;;;7.47;;
18532;SDS011;9396;51.510;11.934;2023-02-20T04:57:17;10.47;;;6.97;;
18532;SDS011;9396;51.510;11.934;2023-02-20T04:59:45;10.47;;;7.40;;
18532;SDS011;9396;51.510;11.934;2023-02-20T05:02:12;10.43;;;6.83;;
18532;SDS011;9396;51.510;11.934;2023-02-20T05:04:38;10.50;;;7.50;;
18532;SDS011;9396;51.510;11.934;2023-02-20T05:07:05;10.50;;;7.17;;
18532;SDS011;9396;51.510;11.934;2023-02-20T05:09:32;8.10;;;6.50;;
18532;SDS011;9396;51.510;11.934;2023-02-20T05:11:58;8.77;;;6.10;;
18532;SDS011;9396;51.510;11.934;2023-02-20T05:14:25;7.33;;;5.77;;
18532;SDS011;9396;51.510;11.934;2023-02-20T05:16:53;8.90;;;6.30;;
18532;SDS011;9396;51.510;11.934;2023-02-20T05:19:20;7.60;;;5.50;;
18532;SDS011;9396;51.510;11.934;2023-02-20T05:21:46;11.97;;;6.33;;
18532;SDS011;9396;51.510;11.934;2023-02-20T05:24:31;12.57;;;6.17;;
18532;SDS011;9396;51.510;11.934;2023-02-20T05:26:57;8.47;;;6.07;;
18532;SDS011;9396;51.510;11.934;2023-02-20T05:29:24;7.77;;;5.23;;
18532;SDS011;9396;51.510;11.934;2023-02-20T05:31:51;8.77;;;6.10;;
18532;SDS011;9396;51.510;11.934;2023-02-20T05:34:19;8.13;;;5.13;;
18532;SDS011;9396;51.510;11.934;2023-02-20T05:36:46;7.20;;;5.33;;
18532;SDS011;9396;51.510;11.934;2023-02-20T05:39:13;8.03;;;5.37;;
18532;SDS011;9396;51.510;11.934;2023-02-20T05:41:39;9.50;;;5.63;;
18532;SDS011;9396;51.510;11.934;2023-02-20T05:44:06;8.33;;;5.73;;
18532;SDS011;9396;51.510;11.934;2023-02-20T05:46:37;12.47;;;5.97;;
18532;SDS011;9396;51.510;11.934;2023-02-20T05:49:05;7.73;;;5.10;;
18532;SDS011;9396;51.510;11.934;2023-02-20T05:51:33;6.53;;;4.77;;
18532;SDS011;9396;51.510;11.934;2023-02-20T05:53:59;6.60;;;5.10;;
18532;SDS011;9396;51.510;11.934;2023-02-20T05:56:26;6.93;;;5.10;;
18532;SDS011;9396;51.510;11.934;2023-02-20T05:58:54;7.27;;;4.93;;
18532;SDS011;9396;51.510;11.934;2023-02-20T06:01:21;6.33;;;4.60;;
18532;SDS011;9396;51.510;11.934;2023-02-20T06:03:50;6.67;;;4.43;;
18532;SDS011;9396;51.510;11.934;2023-02-20T06:06:17;4.80;;;3.73;;
18532;SDS011;9396;51.510;11.934;2023-02-20T06:08:46;5.17;;;4.20;;
18532;SDS011;9396;51.510;11.934;2023-02-20T06:11:13;5.00;;;3.43;;
18532;SDS011;9396;51.510;11.934;2023-02-20T06:13:42;4.77;;;3.37;;
18532;SDS011;9396;51.510;11.934;2023-02-20T06:16:10;4.83;;;3.13;;
18532;SDS011;9396;51.510;11.934;2023-02-20T06:18:37;3.87;;;2.80;;
18532;SDS011;9396;51.510;11.934;2023-02-20T06:21:05;3.63;;;3.13;;
18532;SDS011;9396;51.510;11.934;2023-02-20T06:23:32;3.03;;;2.67;;
18532;SDS011;9396;51.510;11.934;2023-02-20T06:26:00;3.80;;;3.00;;
18532;SDS011;9396;51.510;11.934;2023-02-20T06:28:27;3.33;;;2.87;;
18532;SDS011;9396;51.510;11.934;2023-02-20T06:30:54;3.47;;;2.80;;
18532;SDS011;9396;51.510;11.934;2023-02-20T06:33:20;3.87;;;2.47;;
18532;SDS011;9396;51.510;11.934;2023-02-20T06:35:47;3.37;;;3.07;;
18532;SDS011;9396;51.510;11.934;2023-02-20T06:38:14;4.63;;;3.00;;
18532;SDS011;9396;51.510;11.934;2023-02-20T06:40:40;4.60;;;3.17;;
18532;SDS011;9396;51.510;11.934;2023-02-20T06:43:08;3.60;;;3.00;;
18532;SDS011;9396;51.510;11.934;2023-02-20T06:45:35;4.77;;;3.30;;
18532;SDS011;9396;51.510;11.934;2023-02-20T06:48:01;4.57;;;3.07;;
18532;SDS011;9396;51.510;11.934;2023-02-20T06:50:28;5.10;;;3.43;;
18532;SDS011;9396;51.510;11.934;2023-02-20T06:52:55;4.10;;;3.47;;
18532;SDS011;9396;51.510;11.934;2023-02-20T06:55:22;6.83;;;4.07;;
18532;SDS011;9396;51.510;11.934;2023-02-20T06:57:48;5.13;;;3.80;;
18532;SDS011;9396;51.510;11.934;2023-02-20T07:00:17;5.00;;;3.97;;
18532;SDS011;9396;51.510;11.934;2023-02-20T07:02:44;5.80;;;4.33;;
18532;SDS011;9396;51.510;11.934;2023-02-20T07:05:11;5.77;;;4.40;;
18532;SDS011;9396;51.510;11.934;2023-02-20T07:07:37;7.77;;;4.70;;
18532;SDS011;9396;51.510;11.934;2023-02-20T07:10:04;7.07;;;5.10;;
18532;SDS011;9396;51.510;11.934;2023-02-20T07:12:31;10.30;;;5.67;;
18532;SDS011;9396;51.510;11.934;2023-02-20T07:15:01;9.93;;;5.23;;
18532;SDS011;9396;51.510;11.934;2023-02-20T07:17:30;9.77;;;5.93;;
18532;SDS011;9396;51.510;11.934;2023-02-20T07:19:57;11.03;;;6.50;;
18532;SDS011;9396;51.510;11.934;2023-02-20T07:22:24;8.47;;;6.07;;
18532;SDS011;9396;51.510;11.934;2023-02-20T07:24:51;8.87;;;6.30;;
18532;SDS011;9396;51.510;11.934;2023-02-20T07:27:18;9.63;;;6.77;;
18532;SDS011;9396;51.510;11.934;2023-02-20T07:29:45;10.10;;;6.17;;
18532;SDS011;9396;51.510;11.934;2023-02-20T07:32:12;9.97;;;7.07;;
18532;SDS011;9396;51.510;11.934;2023-02-20T07:34:41;9.03;;;6.93;;
18532;SDS011;9396;51.510;11.934;2023-02-20T07:37:07;10.90;;;7.43;;
18532;SDS011;9396;51.510;11.934;2023-02-20T07:39:34;9.53;;;6.57;;
18532;SDS011;9396;51.510;11.934;2023-02-20T07:42:00;9.47;;;6.90;;
18532;SDS011;9396;51.510;11.934;2023-02-20T07:44:27;10.77;;;7.30;;
18532;SDS011;9396;51.510;11.934;2023-02-20T07:46:53;11.17;;;7.37;;
18532;SDS011;9396;51.510;11.934;2023-02-20T07:49:20;10.13;;;7.47;;
18532;SDS011;9396;51.510;11.934;2023-02-20T07:51:48;11.67;;;7.63;;
18532;SDS011;9396;51.510;11.934;2023-02-20T07:54:15;11.73;;;7.43;;
18532;SDS011;9396;51.510;11.934;2023-02-20T07:56:41;13.10;;;7.33;;
18532;SDS011;9396;51.510;11.934;2023-02-20T07:59:08;11.73;;;7.70;;
18532;SDS011;9396;51.510;11.934;2023-02-20T08:01:35;11.70;;;7.70;;
18532;SDS011;9396;51.510;11.934;2023-02-20T08:04:01;11.17;;;7.90;;
18532;SDS011;9396;51.510;11.934;2023-02-20T08:06:28;11.27;;;8.00;;
18532;SDS011;9396;51.510;11.934;2023-02-20T08:08:56;11.37;;;7.60;;
18532;SDS011;9396;51.510;11.934;2023-02-20T08:11:22;10.90;;;7.80;;
18532;SDS011;9396;51.510;11.934;2023-02-20T08:13:49;11.00;;;7.83;;
18532;SDS011;9396;51.510;11.934;2023-02-20T08:16:19;10.50;;;7.33;;
18532;SDS011;9396;51.510;11.934;2023-02-20T08:18:46;10.27;;;7.20;;
18532;SDS011;9396;51.510;11.934;2023-02-20T08:21:12;13.13;;;7.33;;
18532;SDS011;9396;51.510;11.934;2023-02-20T08:23:39;10.00;;;7.53;;
18532;SDS011;9396;51.510;11.934;2023-02-20T08:26:07;9.67;;;7.30;;
18532;SDS011;9396;51.510;11.934;2023-02-20T08:28:34;10.13;;;7.33;;
18532;SDS011;9396;51.510;11.934;2023-02-20T08:31:00;12.67;;;7.20;;
18532;SDS011;9396;51.510;11.934;2023-02-20T08:33:27;9.93;;;7.47;;
18532;SDS011;9396;51.510;11.934;2023-02-20T08:35:53;10.90;;;6.77;;
18532;SDS011;9396;51.510;11.934;2023-02-20T08:38:23;10.73;;;6.23;;
18532;SDS011;9396;51.510;11.934;2023-02-20T08:40:52;10.23;;;7.10;;
18532;SDS011;9396;51.510;11.934;2023-02-20T08:43:20;9.50;;;6.60;;
18532;SDS011;9396;51.510;11.934;2023-02-20T08:45:47;10.87;;;6.20;;
18532;SDS011;9396;51.510;11.934;2023-02-20T08:48:14;9.63;;;6.60;;
18532;SDS011;9396;51.510;11.934;2023-02-20T08:50:40;7.07;;;5.60;;
18532;SDS011;9396;51.510;11.934;2023-02-20T08:53:07;9.17;;;6.13;;
18532;SDS011;9396;51.510;11.934;2023-02-20T08:55:34;11.83;;;6.03;;
18532;SDS011;9396;51.510;11.934;2023-02-20T08:58:00;8.77;;;5.43;;
18532;SDS011;9396;51.510;11.934;2023-02-20T09:00:28;7.53;;;5.27;;
18532;SDS011;9396;51.510;11.934;2023-02-20T09:02:55;7.23;;;5.67;;
18532;SDS011;9396;51.510;11.934;2023-02-20T09:05:21;9.80;;;5.93;;
18532;SDS011;9396;51.510;11.934;2023-02-20T09:07:48;7.93;;;5.73;;
18532;SDS011;9396;51.510;11.934;2023-02-20T09:10:15;7.93;;;5.53;;
18532;SDS011;9396;51.510;11.934;2023-02-20T09:12:43;8.17;;;5.40;;
18532;SDS011;9396;51.510;11.934;2023-02-20T09:15:09;8.37;;;4.87;;
18532;SDS011;9396;51.510;11.934;2023-02-20T09:17:38;11.30;;;5.67;;
18532;SDS011;9396;51.510;11.934;2023-02-20T09:20:04;7.67;;;4.63;;
18532;SDS011;9396;51.510;11.934;2023-02-20T09:22:33;7.83;;;4.50;;
18532;SDS011;9396;51.510;11.934;2023-02-20T09:25:00;6.30;;;4.40;;
18532;SDS011;9396;51.510;11.934;2023-02-20T09:27:27;5.50;;;4.30;;
18532;SDS011;9396;51.510;11.934;2023-02-20T09:29:53;12.03;;;4.87;;
18532;SDS011;9396;51.510;11.934;2023-02-20T09:32:20;7.47;;;4.53;;
18532;SDS011;9396;51.510;11.934;2023-02-20T09:34:48;6.73;;;4.27;;
18532;SDS011;9396;51.510;11.934;2023-02-20T09:37:15;6.73;;;4.77;;
18532;SDS011;9396;51.510;11.934;2023-02-20T09:39:41;6.33;;;4.23;;
18532;SDS011;9396;51.510;11.934;2023-02-20T09:42:14;8.80;;;4.37;;
18532;SDS011;9396;51.510;11.934;2023-02-20T09:44:50;5.80;;;3.53;;
18532;SDS011;9396;51.510;11.934;2023-02-20T09:47:26;7.80;;;5.43;;
18532;SDS011;9396;51.510;11.934;2023-02-20T09:50:05;5.53;;;3.63;;
18532;SDS011;9396;51.510;11.934;2023-02-20T09:52:38;7.00;;;4.20;;
18532;SDS011;9396;51.510;11.934;2023-02-20T09:55:11;5.70;;;3.93;;
18532;SDS011;9396;51.510;11.934;2023-02-20T09:57:42;6.63;;;4.40;;
18532;SDS011;9396;51.510;11.934;2023-02-20T10:00:18;7.03;;;3.57;;
18532;SDS011;9396;51.510;11.934;2023-02-20T10:02:51;5.20;;;3.50;;
18532;SDS011;9396;51.510;11.934;2023-02-20T10:05:24;6.90;;;3.43;;
18532;SDS011;9396;51.510;11.934;2023-02-20T10:07:53;6.57;;;3.30;;
18532;SDS011;9396;51.510;11.934;2023-02-20T10:10:21;5.23;;;3.13;;
18532;SDS011;9396;51.510;11.934;2023-02-20T10:12:53;5.17;;;3.10;;
18532;SDS011;9396;51.510;11.934;2023-02-20T10:15:28;5.80;;;3.10;;
18532;SDS011;9396;51.510;11.934;2023-02-20T10:18:05;4.00;;;3.07;;
18532;SDS011;9396;51.510;11.934;2023-02-20T10:20:44;4.07;;;2.87;;
18532;SDS011;9396;51.510;11.934;2023-02-20T10:23:21;3.20;;;2.43;;
18532;SDS011;9396;51.510;11.934;2023-02-20T10:25:59;4.83;;;3.00;;
18532;SDS011;9396;51.510;11.934;2023-02-20T10:28:30;4.53;;;2.77;;
18532;SDS011;9396;51.510;11.934;2023-02-20T10:30:57;5.20;;;2.87;;
18532;SDS011;9396;51.510;11.934;2023-02-20T10:33:27;5.27;;;2.83;;
18532;SDS011;9396;51.510;11.934;2023-02-20T10:36:01;4.97;;;2.57;;
18532;SDS011;9396;51.510;11.934;2023-02-20T10:38:35;5.37;;;2.40;;
18532;SDS011;9396;51.510;11.934;2023-02-20T10:41:07;3.70;;;2.50;;
18532;SDS011;9396;51.510;11.934;2023-02-20T10:43:44;5.23;;;2.40;;
18532;SDS011;9396;51.510;11.934;2023-02-20T10:46:16;3.57;;;2.17;;
18532;SDS011;9396;51.510;11.934;2023-02-20T10:48:50;4.87;;;2.37;;
18532;SDS011;9396;51.510;11.934;2023-02-20T10:51:25;4.77;;;2.47;;
18532;SDS011;9396;51.510;11.934;2023-02-20T10:53:56;4.77;;;2.23;;
18532;SDS011;9396;51.510;11.934;2023-02-20T10:56:29;4.30;;;2.30;;
18532;SDS011;9396;51.510;11.934;2023-02-20T10:59:01;5.07;;;2.57;;
18532;SDS011;9396;51.510;11.934;2023-02-20T11:01:32;3.50;;;2.23;;
18532;SDS011;9396;51.510;11.934;2023-02-20T11:04:01;4.33;;;2.07;;
18532;SDS011;9396;51.510;11.934;2023-02-20T11:06:35;4.30;;;2.27;;
18532;SDS011;9396;51.510;11.934;2023-02-20T11:09:04;3.37;;;2.27;;
18532;SDS011;9396;51.510;11.934;2023-02-20T11:11:34;2.87;;;1.90;;
18532;SDS011;9396;51.510;11.934;2023-02-20T11:14:08;3.27;;;1.90;;
18532;SDS011;9396;51.510;11.934;2023-02-20T11:16:39;4.87;;;2.30;;
18532;SDS011;9396;51.510;11.934;2023-02-20T11:19:11;3.30;;;2.33;;
18532;SDS011;9396;51.510;11.934;2023-02-20T11:21:43;5.30;;;2.07;;
18532;SDS011;9396;51.510;11.934;2023-02-20T11:24:18;3.90;;;2.13;;
18532;SDS011;9396;51.510;11.934;2023-02-20T11:26:53;4.83;;;2.10;;
18532;SDS011;9396;51.510;11.934;2023-02-20T11:29:22;4.63;;;2.40;;
18532;SDS011;9396;51.510;11.934;2023-02-20T11:31:50;6.23;;;2.00;;
18532;SDS011;9396;51.510;11.934;2023-02-20T11:34:17;5.50;;;2.67;;
18532;SDS011;9396;51.510;11.934;2023-02-20T11:36:48;3.10;;;2.00;;
18532;SDS011;9396;51.510;11.934;2023-02-20T11:39:23;5.47;;;2.30;;
18532;SDS011;9396;51.510;11.934;2023-02-20T11:42:03;4.70;;;2.43;;
18532;SDS011;9396;51.510;11.934;2023-02-20T11:44:32;5.43;;;2.73;;
18532;SDS011;9396;51.510;11.934;2023-02-20T11:47:19;6.23;;;2.33;;
18532;SDS011;9396;51.510;11.934;2023-02-20T11:50:07;4.13;;;2.20;;
18532;SDS011;9396;51.510;11.934;2023-02-20T11:52:37;3.30;;;2.13;;
18532;SDS011;9396;51.510;11.934;2023-02-20T11:55:08;6.67;;;2.53;;
18532;SDS011;9396;51.510;11.934;2023-02-20T11:57:37;3.53;;;2.30;;
18532;SDS011;9396;51.510;11.934;2023-02-20T12:00:09;4.43;;;2.63;;
18532;SDS011;9396;51.510;11.934;2023-02-20T12:02:46;2.60;;;2.07;;
18532;SDS011;9396;51.510;11.934;2023-02-20T12:05:15;4.90;;;2.90;;
18532;SDS011;9396;51.510;11.934;2023-02-20T12:07:44;7.57;;;2.20;;
18532;SDS011;9396;51.510;11.934;2023-02-20T12:10:20;4.13;;;2.30;;
18532;SDS011;9396;51.510;11.934;2023-02-20T12:12:51;4.80;;;2.23;;
18532;SDS011;9396;51.510;11.934;2023-02-20T12:15:19;2.40;;;1.70;;
18532;SDS011;9396;51.510;11.934;2023-02-20T12:17:52;5.17;;;1.90;;
18532;SDS011;9396;51.510;11.934;2023-02-20T12:20:29;4.00;;;2.40;;
18532;SDS011;9396;51.510;11.934;2023-02-20T12:23:00;3.93;;;2.07;;
18532;SDS011;9396;51.510;11.934;2023-02-20T12:25:35;4.93;;;2.10;;
18532;SDS011;9396;51.510;11.934;2023-02-20T12:28:16;4.57;;;2.20;;
18532;SDS011;9396;51.510;11.934;2023-02-20T12:30:56;4.83;;;1.70;;
18532;SDS011;9396;51.510;11.934;2023-02-20T12:33:37;3.90;;;2.03;;
18532;SDS011;9396;51.510;11.934;2023-02-20T12:36:18;4.50;;;2.33;;
18532;SDS011;9396;51.510;11.934;2023-02-20T12:38:57;2.80;;;2.00;;
18532;SDS011;9396;51.510;11.934;2023-02-20T12:41:32;5.20;;;1.97;;
18532;SDS011;9396;51.510;11.934;2023-02-20T12:47:01;6.23;;;2.33;;
18532;SDS011;9396;51.510;11.934;2023-02-20T12:52:48;3.60;;;1.90;;
18532;SDS011;9396;51.510;11.934;2023-02-20T12:55:26;5.67;;;2.03;;
18532;SDS011;9396;51.510;11.934;2023-02-20T12:58:04;3.13;;;1.60;;
18532;SDS011;9396;51.510;11.934;2023-02-20T13:00:42;2.60;;;1.60;;
18532;SDS011;9396;51.510;11.934;2023-02-20T13:03:13;2.80;;;1.30;;
18532;SDS011;9396;51.510;11.934;2023-02-20T13:05:45;3.13;;;1.70;;
18532;SDS011;9396;51.510;11.934;2023-02-20T13:08:15;3.97;;;1.70;;
18532;SDS011;9396;51.510;11.934;2023-02-20T13:10:51;3.67;;;1.83;;
18532;SDS011;9396;51.510;11.934;2023-02-20T13:13:21;5.23;;;1.63;;
18532;SDS011;9396;51.510;11.934;2023-02-20T13:15:51;3.53;;;1.90;;
18532;SDS011;9396;51.510;11.934;2023-02-20T13:18:25;2.70;;;1.33;;
18532;SDS011;9396;51.510;11.934;2023-02-20T13:20:57;2.53;;;1.60;;
18532;SDS011;9396;51.510;11.934;2023-02-20T13:23:30;3.53;;;1.47;;
18532;SDS011;9396;51.510;11.934;2023-02-20T13:25:59;2.43;;;1.20;;
18532;SDS011;9396;51.510;11.934;2023-02-20T13:28:34;2.83;;;1.70;;
18532;SDS011;9396;51.510;11.934;2023-02-20T13:31:16;2.30;;;1.30;;
18532;SDS011;9396;51.510;11.934;2023-02-20T13:33:46;4.80;;;1.43;;
18532;SDS011;9396;51.510;11.934;2023-02-20T13:41:57;1.90;;;1.07;;
18532;SDS011;9396;51.510;11.934;2023-02-20T13:44:36;2.20;;;1.20;;
18532;SDS011;9396;51.510;11.934;2023-02-20T13:53:01;2.60;;;1.30;;
18532;SDS011;9396;51.510;11.934;2023-02-20T13:55:30;3.63;;;1.40;;
18532;SDS011;9396;51.510;11.934;2023-02-20T13:58:02;1.93;;;1.20;;
18532;SDS011;9396;51.510;11.934;2023-02-20T14:00:38;4.33;;;1.23;;
18532;SDS011;9396;51.510;11.934;2023-02-20T14:03:10;2.97;;;0.97;;
18532;SDS011;9396;51.510;11.934;2023-02-20T14:05:38;1.50;;;1.03;;
18532;SDS011;9396;51.510;11.934;2023-02-20T14:08:05;5.00;;;1.27;;
18532;SDS011;9396;51.510;11.934;2023-02-20T14:10:33;2.10;;;1.20;;
18532;SDS011;9396;51.510;11.934;2023-02-20T14:13:03;2.33;;;1.50;;
18532;SDS011;9396;51.510;11.934;2023-02-20T14:15:42;1.57;;;1.10;;
18532;SDS011;9396;51.510;11.934;2023-02-20T14:18:13;1.67;;;1.10;;
18532;SDS011;9396;51.510;11.934;2023-02-20T14:20:42;2.77;;;1.30;;
18532;SDS011;9396;51.510;11.934;2023-02-20T14:23:17;1.93;;;1.10;;
18532;SDS011;9396;51.510;11.934;2023-02-20T14:25:51;5.03;;;1.17;;
18532;SDS011;9396;51.510;11.934;2023-02-20T14:28:21;4.77;;;0.97;;
18532;SDS011;9396;51.510;11.934;2023-02-20T14:31:01;2.23;;;1.17;;
18532;SDS011;9396;51.510;11.934;2023-02-20T14:33:32;4.57;;;1.20;;
18532;SDS011;9396;51.510;11.934;2023-02-20T14:38:54;1.90;;;0.90;;
18532;SDS011;9396;51.510;11.934;2023-02-20T14:41:38;1.30;;;1.10;;
18532;SDS011;9396;51.510;11.934;2023-02-20T14:44:18;1.93;;;1.20;;
18532;SDS011;9396;51.510;11.934;2023-02-20T14:46:45;2.87;;;1.10;;
18532;SDS011;9396;51.510;11.934;2023-02-20T14:49:13;1.80;;;1.00;;
18532;SDS011;9396;51.510;11.934;2023-02-20T14:51:42;2.40;;;1.20;;
18532;SDS011;9396;51.510;11.934;2023-02-20T14:54:15;2.93;;;1.40;;
18532;SDS011;9396;51.510;11.934;2023-02-20T14:56:44;5.10;;;1.13;;
18532;SDS011;9396;51.510;11.934;2023-02-20T14:59:15;2.80;;;1.80;;
18532;SDS011;9396;51.510;11.934;2023-02-20T15:01:49;3.10;;;1.30;;
18532;SDS011;9396;51.510;11.934;2023-02-20T15:04:17;3.33;;;1.40;;
18532;SDS011;9396;51.510;11.934;2023-02-20T15:06:45;2.93;;;1.37;;
18532;SDS011;9396;51.510;11.934;2023-02-20T15:09:13;2.50;;;1.10;;
18532;SDS011;9396;51.510;11.934;2023-02-20T15:11:44;2.23;;;1.30;;
18532;SDS011;9396;51.510;11.934;2023-02-20T15:14:16;3.27;;;1.33;;
18532;SDS011;9396;51.510;11.934;2023-02-20T15:16:44;11.23;;;1.30;;
18532;SDS011;9396;51.510;11.934;2023-02-20T15:19:26;2.97;;;1.27;;
18532;SDS011;9396;51.510;11.934;2023-02-20T15:21:59;1.53;;;1.03;;
18532;SDS011;9396;51.510;11.934;2023-02-20T15:24:27;6.33;;;1.60;;
18532;SDS011;9396;51.510;11.934;2023-02-20T15:27:06;5.67;;;1.17;;
18532;SDS011;9396;51.510;11.934;2023-02-20T15:29:38;3.03;;;1.60;;
18532;SDS011;9396;51.510;11.934;2023-02-20T15:32:05;4.53;;;2.10;;
18532;SDS011;9396;51.510;11.934;2023-02-20T15:34:43;4.20;;;2.53;;